createdAt,value
2024-02-03T00:00:12.131Z,15.25
2024-02-03T00:00:34.484Z,15.01
2024-02-03T00:00:56.394Z,15.06
2024-02-03T00:01:18.251Z,15.10
2024-02-03T00:01:42.642Z,15.07
2024-02-03T00:02:04.804Z,15.13
2024-02-03T00:02:26.562Z,15.18
2024-02-03T00:02:48.266Z,15.25
2024-02-03T00:03:09.964Z,15.26
2024-02-03T00:03:32.759Z,15.27
2024-02-03T00:03:54.768Z,15.26
2024-02-03T00:04:16.649Z,15.25
2024-02-03T00:04:38.431Z,15.30
2024-02-03T00:05:00.225Z,15.34
2024-02-03T00:05:22.876Z,15.32
2024-02-03T00:05:45.634Z,15.35
2024-02-03T00:06:07.843Z,15.31
2024-02-03T00:06:29.730Z,15.38
2024-02-03T00:06:51.554Z,15.35
2024-02-03T00:07:13.374Z,15.30
2024-02-03T00:07:37.503Z,15.26
2024-02-03T00:07:59.232Z,15.33
2024-02-03T00:08:20.988Z,15.37
2024-02-03T00:08:42.652Z,15.39
2024-02-03T00:09:06.524Z,15.41
2024-02-03T00:09:28.327Z,15.46
2024-02-03T00:09:51.101Z,15.49
2024-02-03T00:10:13.046Z,15.50
2024-02-03T00:10:38.652Z,15.50
2024-02-03T00:11:00.626Z,15.51
2024-02-03T00:11:24.569Z,15.39
2024-02-03T00:11:48.794Z,15.35
2024-02-03T00:12:11.751Z,15.35
2024-02-03T00:12:33.708Z,15.32
2024-02-03T00:12:55.878Z,15.31
2024-02-03T00:13:18.834Z,15.38
2024-02-03T00:13:40.789Z,15.37
2024-02-03T00:14:02.662Z,15.41
2024-02-03T00:14:24.608Z,15.39
2024-02-03T00:14:46.522Z,15.37
2024-02-03T00:15:10.112Z,15.08
2024-02-03T00:15:32.462Z,15.11
2024-02-03T00:15:54.736Z,15.06
2024-02-03T00:16:17.500Z,14.98
2024-02-03T00:16:39.503Z,14.94
2024-02-03T00:17:01.454Z,14.68
2024-02-03T00:17:24.702Z,14.64
2024-02-03T00:17:46.666Z,14.62
2024-02-03T00:18:08.912Z,14.71
2024-02-03T00:18:31.494Z,14.61
2024-02-03T00:18:53.572Z,14.76
2024-02-03T00:19:16.468Z,14.86
2024-02-03T00:19:38.367Z,14.92
2024-02-03T00:20:00.251Z,14.81
2024-02-03T00:20:21.981Z,14.86
2024-02-03T00:20:44.045Z,14.90
2024-02-03T00:21:07.531Z,14.99
2024-02-03T00:21:29.484Z,14.99
2024-02-03T00:21:51.379Z,15.08
2024-02-03T00:22:13.253Z,15.13
2024-02-03T00:22:36.382Z,15.14
2024-02-03T00:22:59.205Z,14.98
2024-02-03T00:23:21.498Z,14.85
2024-02-03T00:23:44.956Z,14.89
2024-02-03T00:24:06.844Z,14.98
2024-02-03T00:24:28.671Z,15.04
2024-02-03T00:24:50.461Z,15.11
2024-02-03T00:25:13.523Z,15.16
2024-02-03T00:25:35.209Z,15.18
2024-02-03T00:25:57.210Z,15.21
2024-02-03T00:26:19.008Z,15.24
2024-02-03T00:26:40.730Z,15.30
2024-02-03T00:27:06.004Z,15.36
2024-02-03T00:27:27.837Z,15.28
2024-02-03T00:27:49.740Z,15.16
2024-02-03T00:28:11.695Z,15.18
2024-02-03T00:28:33.593Z,15.24
2024-02-03T00:28:56.343Z,15.28
2024-02-03T00:29:18.136Z,15.33
2024-02-03T00:29:39.865Z,15.32
2024-02-03T00:30:05.858Z,15.36
2024-02-03T00:30:27.604Z,15.35
2024-02-03T00:30:50.472Z,15.29
2024-02-03T00:31:12.242Z,15.25
2024-02-03T00:31:34.031Z,15.29
2024-02-03T00:31:55.714Z,15.25
2024-02-03T00:32:17.401Z,15.32
2024-02-03T00:32:39.159Z,15.09
2024-02-03T00:33:01.948Z,15.10
2024-02-03T00:33:23.850Z,15.17
2024-02-03T00:33:45.758Z,15.23
2024-02-03T00:34:07.737Z,15.26
2024-02-03T00:34:29.732Z,15.29
2024-02-03T00:34:52.605Z,15.35
2024-02-03T00:35:14.574Z,15.37
2024-02-03T00:35:36.312Z,15.26
2024-02-03T00:35:58.107Z,15.28
2024-02-03T00:36:23.060Z,15.21
2024-02-03T00:36:45.883Z,15.14
2024-02-03T00:37:07.589Z,15.22
2024-02-03T00:37:29.318Z,15.29
2024-02-03T00:37:52.357Z,15.35
2024-02-03T00:38:14.093Z,15.04
2024-02-03T00:38:36.750Z,15.05
2024-02-03T00:39:01.039Z,14.98
2024-02-03T00:39:23.659Z,14.92
2024-02-03T00:39:45.519Z,14.98
2024-02-03T00:40:08.895Z,14.98
2024-02-03T00:40:30.588Z,15.05
2024-02-03T00:40:55.009Z,15.09
2024-02-03T00:41:17.063Z,15.03
2024-02-03T00:41:38.804Z,15.08
2024-02-03T00:42:00.542Z,15.14
2024-02-03T00:42:22.249Z,15.10
2024-02-03T00:42:45.084Z,15.23
2024-02-03T00:43:06.773Z,15.27
2024-02-03T00:43:28.502Z,15.21
2024-02-03T00:43:50.166Z,15.05
2024-02-03T00:44:12.125Z,15.08
2024-02-03T00:44:34.868Z,15.08
2024-02-03T00:44:56.568Z,15.18
2024-02-03T00:45:18.371Z,15.08
2024-02-03T00:45:40.141Z,15.09
2024-02-03T00:46:01.868Z,15.13
2024-02-03T00:46:23.556Z,15.14
2024-02-03T00:46:46.289Z,15.20
2024-02-03T00:47:08.217Z,15.24
2024-02-03T00:47:30.072Z,15.26
2024-02-03T00:47:51.982Z,15.22
2024-02-03T00:48:14.223Z,15.23
2024-02-03T00:48:37.383Z,15.02
2024-02-03T00:48:59.286Z,15.08
2024-02-03T00:49:21.161Z,15.03
2024-02-03T00:49:45.570Z,15.06
2024-02-03T00:50:15.344Z,15.04
2024-02-03T00:50:38.040Z,15.07
2024-02-03T00:50:59.771Z,15.15
2024-02-03T00:51:21.526Z,15.19
2024-02-03T00:51:43.308Z,15.25
2024-02-03T00:52:05.573Z,15.23
2024-02-03T00:52:28.724Z,15.30
2024-02-03T00:52:51.764Z,15.26
2024-02-03T00:53:13.637Z,15.32
2024-02-03T00:53:36.936Z,15.25
2024-02-03T00:53:58.830Z,15.28
2024-02-03T00:54:21.557Z,15.34
2024-02-03T00:54:43.392Z,15.35
2024-02-03T00:55:05.606Z,15.42
2024-02-03T00:55:27.307Z,15.47
2024-02-03T00:55:49.033Z,15.44
2024-02-03T00:56:11.902Z,15.43
2024-02-03T00:56:35.392Z,15.50
2024-02-03T00:56:57.896Z,15.57
2024-02-03T00:57:19.747Z,15.61
2024-02-03T00:57:41.516Z,15.65
2024-02-03T00:58:03.270Z,15.66
2024-02-03T00:58:26.002Z,15.64
2024-02-03T00:58:47.713Z,15.67
2024-02-03T00:59:09.456Z,15.68
2024-02-03T00:59:31.193Z,15.70
2024-02-03T00:59:53.155Z,15.70
2024-02-03T01:00:16.232Z,15.74
2024-02-03T01:00:39.073Z,15.60
2024-02-03T01:01:01.079Z,15.48
2024-02-03T01:01:22.957Z,15.55
2024-02-03T01:01:44.877Z,15.51
2024-02-03T01:02:07.432Z,15.51
2024-02-03T01:02:30.206Z,15.09
2024-02-03T01:02:51.961Z,14.92
2024-02-03T01:03:13.693Z,15.03
2024-02-03T01:03:35.552Z,14.93
2024-02-03T01:03:58.282Z,14.69
2024-02-03T01:04:20.272Z,14.58
2024-02-03T01:04:43.405Z,14.72
2024-02-03T01:05:05.848Z,14.83
2024-02-03T01:05:27.597Z,14.81
2024-02-03T01:05:49.355Z,14.74
2024-02-03T01:06:11.497Z,14.63
2024-02-03T01:06:33.372Z,14.78
2024-02-03T01:06:57.194Z,14.83
2024-02-03T01:07:19.942Z,14.94
2024-02-03T01:07:41.642Z,15.02
2024-02-03T01:08:05.532Z,15.06
2024-02-03T01:08:27.261Z,15.14
2024-02-03T01:08:48.990Z,15.14
2024-02-03T01:09:11.758Z,15.01
2024-02-03T01:09:33.650Z,14.98
2024-02-03T01:09:56.018Z,15.03
2024-02-03T01:10:18.115Z,15.09
2024-02-03T01:10:41.017Z,15.14
2024-02-03T01:11:06.137Z,15.23
2024-02-03T01:11:28.642Z,15.29
2024-02-03T01:11:50.574Z,15.30
2024-02-03T01:12:13.623Z,15.23
2024-02-03T01:12:35.603Z,15.22
2024-02-03T01:12:57.679Z,15.27
2024-02-03T01:13:19.731Z,15.34
2024-02-03T01:13:41.770Z,15.41
2024-02-03T01:14:05.003Z,15.43
2024-02-03T01:14:27.976Z,15.48
2024-02-03T01:14:49.989Z,15.54
2024-02-03T01:15:12.531Z,15.58
2024-02-03T01:15:38.609Z,15.52
2024-02-03T01:16:29.133Z,15.41
2024-02-03T01:16:51.202Z,15.34
2024-02-03T01:17:13.155Z,15.38
2024-02-03T01:17:36.174Z,15.29
2024-02-03T01:17:58.218Z,15.22
2024-02-03T01:18:20.417Z,15.17
2024-02-03T01:18:42.563Z,15.14
2024-02-03T01:19:04.701Z,15.20
2024-02-03T01:19:26.762Z,15.28
2024-02-03T01:19:49.993Z,15.30
2024-02-03T01:20:12.967Z,15.41
2024-02-03T01:20:34.838Z,15.44
2024-02-03T01:20:56.864Z,15.46
2024-02-03T01:21:19.614Z,15.53
2024-02-03T01:21:42.657Z,15.54
2024-02-03T01:22:04.591Z,15.20
2024-02-03T01:22:26.338Z,15.02
2024-02-03T01:22:48.103Z,15.03
2024-02-03T01:23:11.261Z,14.64
2024-02-03T01:23:33.020Z,14.66
2024-02-03T01:23:57.173Z,14.81
2024-02-03T01:24:19.040Z,14.90
2024-02-03T01:24:40.945Z,15.01
2024-02-03T01:25:02.709Z,15.05
2024-02-03T01:25:24.480Z,15.06
2024-02-03T01:25:47.279Z,15.00
2024-02-03T01:26:09.079Z,15.04
2024-02-03T01:26:30.800Z,15.05
2024-02-03T01:26:52.496Z,15.18
2024-02-03T01:27:14.340Z,15.09
2024-02-03T01:27:36.159Z,15.09
2024-02-03T01:27:57.916Z,14.98
2024-02-03T01:28:20.729Z,14.95
2024-02-03T01:28:45.567Z,14.98
2024-02-03T01:29:07.319Z,14.93
2024-02-03T01:29:29.841Z,14.95
2024-02-03T01:29:51.717Z,14.99
2024-02-03T01:30:14.560Z,15.01
2024-02-03T01:30:36.292Z,15.05
2024-02-03T01:30:58.758Z,15.02
2024-02-03T01:31:20.597Z,15.06
2024-02-03T01:31:42.711Z,15.03
2024-02-03T01:32:06.259Z,15.09
2024-02-03T01:32:28.217Z,15.12
2024-02-03T01:32:50.097Z,15.17
2024-02-03T01:33:11.891Z,15.09
2024-02-03T01:33:33.893Z,15.14
2024-02-03T01:33:55.839Z,15.13
2024-02-03T01:34:18.811Z,15.22
2024-02-03T01:34:40.720Z,15.26
2024-02-03T01:35:03.678Z,15.34
2024-02-03T01:35:25.489Z,15.35
2024-02-03T01:35:47.283Z,15.42
2024-02-03T01:36:09.945Z,15.42
2024-02-03T01:36:33.023Z,15.36
2024-02-03T01:36:54.825Z,15.37
2024-02-03T01:37:16.576Z,15.47
2024-02-03T01:37:38.448Z,15.50
2024-02-03T01:38:00.159Z,15.46
2024-02-03T01:38:24.126Z,15.50
2024-02-03T01:38:50.177Z,15.46
2024-02-03T01:39:13.952Z,15.39
2024-02-03T01:39:41.883Z,15.16
2024-02-03T01:40:04.473Z,15.37
2024-02-03T01:40:27.857Z,15.37
2024-02-03T01:40:49.611Z,15.38
2024-02-03T01:41:12.348Z,15.36
2024-02-03T01:41:34.290Z,15.43
2024-02-03T01:41:56.203Z,15.43
2024-02-03T01:42:18.290Z,15.36
2024-02-03T01:42:40.086Z,15.42
2024-02-03T01:43:03.124Z,15.39
2024-02-03T01:43:25.021Z,15.49
2024-02-03T01:43:47.144Z,15.52
2024-02-03T01:44:09.054Z,15.54
2024-02-03T01:44:32.357Z,15.59
2024-02-03T01:44:55.326Z,15.65
2024-02-03T01:45:17.351Z,15.71
2024-02-03T01:45:39.389Z,15.72
2024-02-03T01:46:01.184Z,15.74
2024-02-03T01:46:22.930Z,15.80
2024-02-03T01:46:45.006Z,15.70
2024-02-03T01:47:07.751Z,15.59
2024-02-03T01:47:29.491Z,15.67
2024-02-03T01:47:51.350Z,15.68
2024-02-03T01:48:14.877Z,15.70
2024-02-03T01:48:37.369Z,15.75
2024-02-03T01:49:00.604Z,15.68
2024-02-03T01:49:22.627Z,15.74
2024-02-03T01:49:44.785Z,15.76
2024-02-03T01:50:10.465Z,15.58
2024-02-03T01:50:33.559Z,15.61
2024-02-03T01:50:56.832Z,15.65
2024-02-03T01:51:20.579Z,15.70
2024-02-03T01:51:42.631Z,15.71
2024-02-03T01:52:06.188Z,15.72
2024-02-03T01:52:28.403Z,15.77
2024-02-03T01:52:52.376Z,15.78
2024-02-03T01:53:14.735Z,15.81
2024-02-03T01:53:38.594Z,15.81
2024-02-03T01:54:01.018Z,15.87
2024-02-03T01:54:22.982Z,15.81
2024-02-03T01:54:46.270Z,15.76
2024-02-03T01:55:09.611Z,15.79
2024-02-03T01:55:33.665Z,15.19
2024-02-03T01:55:58.234Z,14.80
2024-02-03T01:56:20.975Z,14.91
2024-02-03T01:56:46.105Z,14.92
2024-02-03T01:57:09.784Z,14.70
2024-02-03T01:57:32.568Z,14.43
2024-02-03T01:57:54.737Z,14.60
2024-02-03T01:58:16.738Z,14.75
2024-02-03T01:58:38.595Z,14.78
2024-02-03T01:59:01.665Z,14.82
2024-02-03T01:59:25.221Z,14.84
2024-02-03T01:59:48.084Z,14.95
2024-02-03T02:00:11.562Z,15.02
2024-02-03T02:00:33.558Z,15.07
2024-02-03T02:00:58.128Z,15.09
2024-02-03T02:01:19.944Z,14.99
2024-02-03T02:01:42.034Z,14.79
2024-02-03T02:02:04.222Z,14.63
2024-02-03T02:02:25.958Z,14.47
2024-02-03T02:02:47.755Z,14.52
2024-02-03T02:03:10.614Z,14.44
2024-02-03T02:03:32.656Z,14.53
2024-02-03T02:03:54.540Z,14.62
2024-02-03T02:04:16.736Z,14.68
2024-02-03T02:04:38.722Z,14.66
2024-02-03T02:05:01.677Z,14.72
2024-02-03T02:05:23.752Z,14.63
2024-02-03T02:05:46.074Z,14.59
2024-02-03T02:06:08.697Z,14.65
2024-02-03T02:06:31.340Z,14.60
2024-02-03T02:06:54.354Z,14.63
2024-02-03T02:07:16.173Z,14.75
2024-02-03T02:07:42.672Z,14.82
2024-02-03T02:08:05.015Z,14.90
2024-02-03T02:08:33.754Z,15.00
2024-02-03T02:08:57.865Z,14.94
2024-02-03T02:09:20.229Z,14.81
2024-02-03T02:09:42.229Z,14.91
2024-02-03T02:10:04.928Z,14.89
2024-02-03T02:10:27.006Z,14.95
2024-02-03T02:10:49.228Z,15.03
2024-02-03T02:11:13.449Z,15.09
2024-02-03T02:11:37.113Z,15.18
2024-02-03T02:11:59.236Z,15.18
2024-02-03T02:12:21.290Z,15.25
2024-02-03T02:12:43.791Z,15.25
2024-02-03T02:13:05.992Z,15.26
2024-02-03T02:13:29.300Z,15.21
2024-02-03T02:13:51.399Z,15.30
2024-02-03T02:14:13.667Z,15.32
2024-02-03T02:14:35.738Z,15.36
2024-02-03T02:14:57.692Z,15.36
2024-02-03T02:15:19.795Z,14.97
2024-02-03T02:15:43.166Z,14.97
2024-02-03T02:16:06.277Z,14.97
2024-02-03T02:16:30.230Z,14.97
2024-02-03T02:16:53.138Z,14.90
2024-02-03T02:17:16.823Z,15.03
2024-02-03T02:17:38.835Z,15.04
2024-02-03T02:18:01.356Z,14.91
2024-02-03T02:18:24.810Z,14.90
2024-02-03T02:18:46.946Z,14.88
2024-02-03T02:19:10.216Z,14.94
2024-02-03T02:19:32.413Z,14.81
2024-02-03T02:19:54.437Z,14.51
2024-02-03T02:20:18.000Z,14.44
2024-02-03T02:20:39.987Z,14.50
2024-02-03T02:21:02.247Z,14.68
2024-02-03T02:21:25.088Z,14.78
2024-02-03T02:21:46.998Z,14.82
2024-02-03T02:22:08.763Z,14.88
2024-02-03T02:22:30.582Z,14.91
2024-02-03T02:22:52.358Z,14.91
2024-02-03T02:23:15.229Z,14.83
2024-02-03T02:23:37.117Z,14.72
2024-02-03T02:23:58.937Z,14.77
2024-02-03T02:24:21.042Z,14.82
2024-02-03T02:24:43.590Z,14.93
2024-02-03T02:25:07.266Z,15.02
2024-02-03T02:25:29.058Z,14.84
2024-02-03T02:25:50.872Z,14.89
2024-02-03T02:26:12.688Z,15.00
2024-02-03T02:26:34.412Z,15.04
2024-02-03T02:26:56.193Z,15.01
2024-02-03T02:27:19.011Z,15.18
2024-02-03T02:27:40.818Z,15.12
2024-02-03T02:28:02.549Z,15.31
2024-02-03T02:28:25.073Z,15.22
2024-02-03T02:28:46.759Z,15.25
2024-02-03T02:29:08.490Z,15.32
2024-02-03T02:29:31.251Z,15.36
2024-02-03T02:29:53.069Z,15.35
2024-02-03T02:30:15.128Z,15.33
2024-02-03T02:30:36.970Z,15.38
2024-02-03T02:30:58.722Z,15.44
2024-02-03T02:31:20.399Z,15.45
2024-02-03T02:31:43.048Z,15.45
2024-02-03T02:32:05.508Z,15.46
2024-02-03T02:32:27.360Z,15.52
2024-02-03T02:32:49.369Z,15.53
2024-02-03T02:33:11.480Z,15.48
2024-02-03T02:33:34.352Z,15.41
2024-02-03T02:33:56.168Z,15.39
2024-02-03T02:34:18.009Z,15.46
2024-02-03T02:34:40.357Z,15.47
2024-02-03T02:35:02.911Z,15.48
2024-02-03T02:35:25.971Z,15.26
2024-02-03T02:35:51.029Z,15.05
2024-02-03T02:36:12.939Z,15.11
2024-02-03T02:36:34.741Z,15.18
2024-02-03T02:36:56.476Z,15.21
2024-02-03T02:37:18.539Z,15.27
2024-02-03T02:37:40.436Z,15.28
2024-02-03T02:38:02.133Z,15.35
2024-02-03T02:38:24.842Z,15.42
2024-02-03T02:38:46.560Z,15.41
2024-02-03T02:39:08.332Z,15.44
2024-02-03T02:39:30.078Z,15.40
2024-02-03T02:39:51.900Z,15.33
2024-02-03T02:40:14.970Z,15.26
2024-02-03T02:40:36.724Z,15.08
2024-02-03T02:40:58.414Z,15.04
2024-02-03T02:41:20.149Z,15.15
2024-02-03T02:41:41.825Z,15.20
2024-02-03T02:42:04.165Z,15.26
2024-02-03T02:42:26.860Z,15.25
2024-02-03T02:42:48.587Z,15.30
2024-02-03T02:43:10.407Z,15.31
2024-02-03T02:43:32.147Z,15.24
2024-02-03T02:43:53.851Z,15.30
2024-02-03T02:44:16.593Z,15.34
2024-02-03T02:44:38.265Z,15.31
2024-02-03T02:44:59.973Z,15.26
2024-02-03T02:45:21.801Z,14.98
2024-02-03T02:45:43.573Z,14.82
2024-02-03T02:46:07.383Z,14.90
2024-02-03T02:46:29.149Z,15.00
2024-02-03T02:46:50.822Z,15.05
2024-02-03T02:47:12.977Z,15.08
2024-02-03T02:47:34.775Z,15.12
2024-02-03T02:47:56.601Z,15.17
2024-02-03T02:48:19.540Z,15.20
2024-02-03T02:48:41.434Z,15.25
2024-02-03T02:49:03.466Z,15.20
2024-02-03T02:49:25.365Z,15.18
2024-02-03T02:49:47.680Z,14.74
2024-02-03T02:50:10.914Z,14.46
2024-02-03T02:50:34.790Z,14.50
2024-02-03T02:50:56.470Z,14.57
2024-02-03T02:51:18.194Z,14.65
2024-02-03T02:51:39.986Z,14.39
2024-02-03T02:52:01.767Z,14.43
2024-02-03T02:52:24.554Z,14.53
2024-02-03T02:52:46.285Z,14.44
2024-02-03T02:53:08.290Z,14.39
2024-02-03T02:53:30.008Z,14.46
2024-02-03T02:53:51.693Z,14.50
2024-02-03T02:54:14.380Z,14.51
2024-02-03T02:54:36.124Z,14.60
2024-02-03T02:54:58.054Z,14.68
2024-02-03T02:55:19.889Z,14.62
2024-02-03T02:55:41.745Z,14.69
2024-02-03T02:56:04.642Z,14.74
2024-02-03T02:56:26.411Z,14.69
2024-02-03T02:56:48.135Z,14.72
2024-02-03T02:57:10.707Z,14.62
2024-02-03T02:57:32.474Z,14.36
2024-02-03T02:57:55.341Z,14.45
2024-02-03T02:59:26.107Z,14.62
2024-02-03T03:04:38.133Z,14.10
2024-02-03T03:05:22.787Z,14.23
2024-02-03T03:05:45.825Z,14.34
2024-02-03T03:06:07.660Z,14.41
2024-02-03T03:06:30.460Z,14.46
2024-02-03T03:06:52.255Z,14.62
2024-02-03T03:07:16.273Z,14.67
2024-02-03T03:07:38.018Z,14.68
2024-02-03T03:07:59.689Z,14.68
2024-02-03T03:08:22.485Z,14.66
2024-02-03T03:08:44.200Z,14.74
2024-02-03T03:09:06.649Z,14.81
2024-02-03T03:09:28.456Z,14.83
2024-02-03T03:09:50.259Z,14.60
2024-02-03T03:10:13.581Z,14.53
2024-02-03T03:10:35.334Z,14.54
2024-02-03T03:10:57.098Z,14.55
2024-02-03T03:11:18.855Z,14.61
2024-02-03T03:11:41.602Z,14.37
2024-02-03T03:12:03.761Z,14.63
2024-02-03T03:12:25.545Z,14.73
2024-02-03T03:12:47.429Z,14.80
2024-02-03T03:13:09.225Z,14.82
2024-02-03T03:13:31.945Z,14.75
2024-02-03T03:13:53.715Z,14.76
2024-02-03T03:14:15.350Z,14.74
2024-02-03T03:14:37.145Z,14.69
2024-02-03T03:14:58.837Z,14.79
2024-02-03T03:15:21.581Z,14.76
2024-02-03T03:15:43.323Z,14.96
2024-02-03T03:16:07.641Z,15.02
2024-02-03T03:16:29.354Z,14.90
2024-02-03T03:16:51.237Z,14.86
2024-02-03T03:17:13.971Z,14.83
2024-02-03T03:17:35.757Z,14.96
2024-02-03T03:17:57.557Z,14.99
2024-02-03T03:18:19.483Z,15.06
2024-02-03T03:18:41.821Z,15.15
2024-02-03T03:19:03.762Z,15.14
2024-02-03T03:19:26.479Z,15.26
2024-02-03T03:19:48.428Z,15.24
2024-02-03T03:20:11.018Z,15.24
2024-02-03T03:20:32.695Z,15.28
2024-02-03T03:20:55.684Z,15.31
2024-02-03T03:21:18.362Z,15.34
2024-02-03T03:21:40.129Z,15.37
2024-02-03T03:22:01.787Z,15.41
2024-02-03T03:22:23.398Z,15.43
2024-02-03T03:22:46.015Z,15.32
2024-02-03T03:23:07.678Z,15.32
2024-02-03T03:23:29.407Z,15.32
2024-02-03T03:23:51.149Z,15.40
2024-02-03T03:24:12.826Z,15.43
2024-02-03T03:24:35.513Z,15.39
2024-02-03T03:24:57.179Z,15.28
2024-02-03T03:25:18.855Z,15.34
2024-02-03T03:25:40.513Z,15.25
2024-02-03T03:26:02.174Z,15.12
2024-02-03T03:26:23.771Z,15.20
2024-02-03T03:26:46.361Z,15.27
2024-02-03T03:27:08.653Z,15.31
2024-02-03T03:27:30.373Z,15.22
2024-02-03T03:27:52.186Z,15.28
2024-02-03T03:28:13.954Z,15.23
2024-02-03T03:28:35.572Z,15.28
2024-02-03T03:28:58.161Z,15.32
2024-02-03T03:29:19.812Z,15.15
2024-02-03T03:29:43.008Z,15.20
2024-02-03T03:30:05.592Z,15.27
2024-02-03T03:30:27.215Z,15.29
2024-02-03T03:36:56.166Z,14.78
2024-02-03T03:37:17.817Z,14.82
2024-02-03T03:37:39.420Z,14.93
2024-02-03T03:38:01.131Z,15.03
2024-02-03T03:38:24.417Z,15.02
2024-02-03T03:38:46.038Z,15.14
2024-02-03T03:39:09.889Z,15.10
2024-02-03T03:39:31.578Z,15.13
2024-02-03T03:39:53.789Z,15.13
2024-02-03T03:40:15.462Z,15.22
2024-02-03T03:40:37.224Z,15.20
2024-02-03T03:40:59.941Z,15.21
2024-02-03T03:41:21.549Z,15.31
2024-02-03T03:41:43.262Z,15.15
2024-02-03T03:42:05.600Z,15.31
2024-02-03T03:42:27.301Z,15.07
2024-02-03T03:42:51.120Z,15.11
2024-02-03T03:43:12.843Z,15.20
2024-02-03T03:43:34.456Z,15.28
2024-02-03T03:43:56.087Z,15.27
2024-02-03T03:44:17.728Z,15.27
2024-02-03T03:44:39.756Z,15.29
2024-02-03T03:45:02.320Z,15.28
2024-02-03T03:45:23.940Z,15.28
2024-02-03T03:45:45.747Z,15.31
2024-02-03T03:46:08.529Z,15.22
2024-02-03T03:46:30.132Z,15.15
2024-02-03T03:46:51.874Z,14.92
2024-02-03T03:47:14.679Z,14.90
2024-02-03T03:47:36.299Z,14.95
2024-02-03T03:47:57.947Z,14.95
2024-02-03T03:48:20.088Z,15.03
2024-02-03T03:48:42.125Z,15.05
2024-02-03T03:49:03.997Z,15.02
2024-02-03T03:49:28.311Z,15.08
2024-02-03T03:49:50.165Z,15.15
2024-02-03T03:50:11.881Z,14.96
2024-02-03T03:50:33.511Z,14.96
2024-02-03T03:50:55.118Z,15.03
2024-02-03T03:51:17.769Z,15.10
2024-02-03T03:51:39.805Z,15.15
2024-02-03T03:52:03.041Z,15.06
2024-02-03T03:52:24.701Z,15.16
2024-02-03T03:52:46.312Z,15.12
2024-02-03T03:53:07.964Z,15.26
2024-02-03T03:53:30.523Z,15.34
2024-02-03T03:53:52.143Z,15.30
2024-02-03T03:54:13.762Z,15.23
2024-02-03T03:54:35.461Z,15.26
2024-02-03T03:54:57.213Z,15.31
2024-02-03T03:55:19.892Z,15.38
2024-02-03T03:55:41.498Z,15.29
2024-02-03T03:56:03.732Z,15.17
2024-02-03T03:56:25.383Z,15.31
2024-02-03T03:56:46.990Z,15.26
2024-02-03T03:57:09.595Z,15.26
2024-02-03T03:57:31.968Z,15.17
2024-02-03T03:57:53.682Z,15.24
2024-02-03T03:58:15.311Z,15.31
2024-02-03T03:58:36.950Z,15.37
2024-02-03T03:59:00.363Z,15.38
2024-02-03T03:59:22.217Z,15.43
2024-02-03T03:59:43.837Z,15.42
2024-02-03T04:00:08.390Z,15.35
2024-02-03T04:00:33.748Z,15.40
2024-02-03T04:00:56.501Z,15.36
2024-02-03T04:01:18.322Z,15.29
2024-02-03T04:01:40.041Z,15.23
2024-02-03T04:02:01.756Z,15.20
2024-02-03T04:02:23.352Z,15.25
2024-02-03T04:02:44.949Z,15.33
2024-02-03T04:03:07.636Z,15.38
2024-02-03T04:03:29.340Z,15.44
2024-02-03T04:03:51.035Z,15.48
2024-02-03T04:04:12.794Z,15.48
2024-02-03T04:04:34.626Z,15.39
2024-02-03T04:04:56.274Z,15.37
2024-02-03T04:05:19.980Z,15.42
2024-02-03T04:05:41.951Z,15.42
2024-02-03T04:06:05.429Z,15.48
2024-02-03T04:06:27.183Z,15.38
2024-02-03T04:06:48.998Z,15.27
2024-02-03T04:07:12.143Z,15.31
2024-02-03T04:07:34.077Z,15.35
2024-02-03T04:07:55.823Z,15.30
2024-02-03T04:08:17.623Z,15.19
2024-02-03T04:08:40.233Z,15.30
2024-02-03T04:09:01.886Z,15.38
2024-02-03T04:09:23.559Z,15.44
2024-02-03T04:09:49.614Z,15.51
2024-02-03T04:10:11.778Z,15.58
2024-02-03T04:10:34.668Z,15.60
2024-02-03T04:10:56.369Z,15.58
2024-02-03T04:11:18.062Z,15.64
2024-02-03T04:11:40.155Z,15.63
2024-02-03T04:12:01.951Z,15.57
2024-02-03T04:12:23.862Z,15.52
2024-02-03T04:12:46.848Z,15.61
2024-02-03T04:13:08.641Z,15.68
2024-02-03T04:13:30.368Z,15.69
2024-02-03T04:13:52.060Z,15.67
2024-02-03T04:14:13.849Z,15.74
2024-02-03T04:14:35.519Z,15.78
2024-02-03T04:14:58.157Z,15.76
2024-02-03T04:15:19.806Z,15.49
2024-02-03T04:15:41.674Z,15.54
2024-02-03T04:16:04.252Z,15.41
2024-02-03T04:16:25.897Z,15.48
2024-02-03T04:16:48.489Z,15.55
2024-02-03T04:17:10.228Z,15.61
2024-02-03T04:17:31.885Z,15.66
2024-02-03T04:17:54.178Z,15.71
2024-02-03T04:18:15.917Z,15.72
2024-02-03T04:18:38.769Z,15.65
2024-02-03T04:19:01.350Z,15.64
2024-02-03T04:19:23.301Z,15.65
2024-02-03T04:19:45.291Z,15.28
2024-02-03T04:20:08.752Z,15.15
2024-02-03T04:20:30.585Z,15.27
2024-02-03T04:20:53.325Z,15.32
2024-02-03T04:21:15.016Z,15.39
2024-02-03T04:21:36.778Z,15.45
2024-02-03T04:21:58.420Z,15.45
2024-02-03T04:22:21.387Z,15.49
2024-02-03T04:22:44.019Z,15.45
2024-02-03T04:23:05.665Z,15.52
2024-02-03T04:23:48.678Z,15.51
2024-02-03T04:24:10.339Z,15.34
2024-02-03T04:24:33.046Z,15.30
2024-02-03T04:24:55.127Z,15.36
2024-02-03T04:25:16.832Z,15.46
2024-02-03T04:25:38.501Z,15.54
2024-02-03T04:26:00.756Z,15.64
2024-02-03T04:26:22.482Z,15.69
2024-02-03T04:26:45.588Z,15.72
2024-02-03T04:27:07.338Z,15.65
2024-02-03T04:27:29.084Z,15.76
2024-02-03T04:27:50.794Z,15.77
2024-02-03T04:28:12.563Z,15.82
2024-02-03T04:28:34.218Z,15.83
2024-02-03T04:28:56.798Z,15.84
2024-02-03T04:29:18.430Z,15.82
2024-02-03T04:29:40.082Z,15.82
2024-02-03T04:30:21.325Z,15.82
2024-02-03T04:30:43.498Z,15.82
2024-02-03T04:31:07.706Z,15.69
2024-02-03T04:31:29.347Z,15.79
2024-02-03T04:31:50.984Z,15.84
2024-02-03T04:32:12.709Z,15.80
2024-02-03T04:32:34.366Z,15.93
2024-02-03T04:32:57.192Z,15.92
2024-02-03T04:33:19.199Z,15.97
2024-02-03T04:33:41.048Z,16.01
2024-02-03T04:34:03.037Z,15.95
2024-02-03T04:34:25.269Z,15.93
2024-02-03T04:34:47.943Z,15.96
2024-02-03T04:35:09.786Z,16.02
2024-02-03T04:35:32.151Z,16.08
2024-02-03T04:35:53.847Z,16.10
2024-02-03T04:36:15.747Z,16.04
2024-02-03T04:36:38.454Z,16.01
2024-02-03T04:37:00.101Z,15.88
2024-02-03T04:37:23.034Z,15.92
2024-02-03T04:37:44.700Z,15.72
2024-02-03T04:38:06.329Z,15.71
2024-02-03T04:38:28.888Z,15.59
2024-02-03T04:38:50.550Z,15.67
2024-02-03T04:39:12.683Z,15.68
2024-02-03T04:39:34.372Z,15.55
2024-02-03T04:39:57.673Z,15.49
2024-02-03T04:40:19.268Z,15.52
2024-02-03T04:40:41.824Z,15.50
2024-02-03T04:41:03.560Z,15.34
2024-02-03T04:41:26.094Z,15.06
2024-02-03T04:41:47.720Z,14.60
2024-02-03T04:42:10.293Z,14.36
2024-02-03T04:42:32.765Z,14.52
2024-02-03T04:42:55.431Z,14.49
2024-02-03T04:43:17.047Z,14.66
2024-02-03T04:43:38.751Z,14.81
2024-02-03T04:44:00.499Z,14.97
2024-02-03T04:44:22.115Z,15.04
2024-02-03T04:44:43.816Z,15.15
2024-02-03T04:45:07.528Z,15.09
2024-02-03T04:45:29.283Z,14.97
2024-02-03T04:45:51.015Z,15.08
2024-02-03T04:46:12.712Z,15.03
2024-02-03T04:46:34.315Z,15.11
2024-02-03T04:46:56.947Z,15.15
2024-02-03T04:47:18.693Z,15.16
2024-02-03T04:47:40.430Z,15.22
2024-02-03T04:48:02.270Z,15.29
2024-02-03T04:48:24.043Z,15.35
2024-02-03T04:48:47.217Z,15.43
2024-02-03T04:49:09.174Z,15.47
2024-02-03T04:49:30.906Z,15.43
2024-02-03T04:49:53.027Z,15.49
2024-02-03T04:50:15.049Z,15.48
2024-02-03T04:50:37.738Z,15.53
2024-02-03T04:50:59.561Z,15.63
2024-02-03T04:51:21.175Z,15.66
2024-02-03T04:51:42.875Z,15.73
2024-02-03T04:52:05.002Z,15.78
2024-02-03T04:52:28.305Z,15.81
2024-02-03T04:52:50.945Z,15.68
2024-02-03T04:53:12.927Z,15.68
2024-02-03T04:53:34.711Z,15.57
2024-02-03T04:53:56.334Z,15.36
2024-02-03T04:54:17.994Z,15.29
2024-02-03T04:54:39.685Z,15.17
2024-02-03T04:55:02.252Z,15.45
2024-02-03T04:55:23.878Z,15.49
2024-02-03T04:55:45.497Z,15.54
2024-02-03T04:56:07.704Z,15.55
2024-02-03T04:56:29.325Z,15.63
2024-02-03T04:56:50.971Z,15.65
2024-02-03T04:57:13.559Z,15.64
2024-02-03T04:57:35.174Z,15.68
2024-02-03T04:57:56.834Z,15.71
2024-02-03T04:58:20.056Z,15.69
2024-02-03T04:58:41.682Z,15.60
2024-02-03T04:59:04.295Z,15.65
2024-02-03T04:59:25.911Z,15.47
2024-02-03T04:59:47.549Z,15.44
2024-02-03T05:00:10.334Z,15.57
2024-02-03T05:00:32.965Z,15.63
2024-02-03T05:00:54.897Z,15.70